createdAt,value
2023-11-22T00:01:32.218Z,94705.94
2023-11-22T00:04:20.114Z,94712.13
2023-11-22T00:07:08.412Z,94719.44
2023-11-22T00:09:54.338Z,94713.72
2023-11-22T00:12:40.407Z,94702.91
2023-11-22T00:15:27.104Z,94714.50
2023-11-22T00:18:13.855Z,94725.31
2023-11-22T00:21:02.885Z,94721.03
2023-11-22T00:23:49.936Z,94711.47
2023-11-22T00:26:36.144Z,94723.84
2023-11-22T00:29:21.929Z,94723.84
2023-11-22T00:32:08.824Z,94729.25
2023-11-22T00:34:56.563Z,94714.63
2023-11-22T00:37:42.500Z,94705.41
2023-11-22T00:40:28.593Z,94712.25
2023-11-22T00:43:14.535Z,94718.91
2023-11-22T00:46:00.659Z,94721.59
2023-11-22T00:48:46.710Z,94720.81
2023-11-22T00:51:33.685Z,94721.59
2023-11-22T00:54:21.203Z,94723.53
2023-11-22T00:57:08.316Z,94712.38
2023-11-22T00:59:55.016Z,94712.38
2023-11-22T01:02:41.555Z,94712.38
2023-11-22T01:05:27.926Z,94713.50
2023-11-22T01:08:15.080Z,94713.72
2023-11-22T01:11:01.346Z,94714.19
2023-11-22T01:13:47.839Z,94716.22
2023-11-22T01:16:34.030Z,94722.13
2023-11-22T01:19:19.920Z,94731.81
2023-11-22T01:22:06.009Z,94711.78
2023-11-22T01:24:51.874Z,94705.41
2023-11-22T01:27:37.831Z,94724.16
2023-11-22T01:30:24.008Z,94725.75
2023-11-22T01:33:10.649Z,94724.63
2023-11-22T01:35:57.368Z,94723.53
2023-11-22T01:38:45.642Z,94719.69
2023-11-22T01:41:31.897Z,94710.34
2023-11-22T01:44:19.508Z,94712.72
2023-11-22T01:47:06.258Z,94726.41
2023-11-22T01:49:52.476Z,94738.16
2023-11-22T01:52:43.886Z,94746.59
2023-11-22T01:55:31.667Z,94741.19
2023-11-22T01:58:17.925Z,94733.38
2023-11-22T02:01:06.000Z,94731.81
2023-11-22T02:03:54.561Z,94717.78
2023-11-22T02:06:40.631Z,94702.75
2023-11-22T02:09:26.450Z,94718.63
2023-11-22T02:12:13.408Z,94717.31
2023-11-22T02:14:59.340Z,94734.00
2023-11-22T02:17:45.231Z,94732.91
2023-11-22T02:20:34.268Z,94737.22
2023-11-22T02:23:20.329Z,94733.09
2023-11-22T02:26:06.553Z,94755.47
2023-11-22T02:28:52.433Z,94756.28
2023-11-22T02:31:38.455Z,94746.25
2023-11-22T02:34:24.372Z,94733.53
2023-11-22T02:37:10.121Z,94724.16
2023-11-22T02:40:12.375Z,94726.72
2023-11-22T02:42:58.929Z,94728.00
2023-11-22T02:45:45.759Z,94728.00
2023-11-22T02:48:31.619Z,94727.50
2023-11-22T02:51:18.492Z,94734.97
2023-11-22T02:54:06.844Z,94728.00
2023-11-22T02:56:52.765Z,94732.13
2023-11-22T02:59:38.591Z,94730.50
2023-11-22T03:02:27.178Z,94743.09
2023-11-22T03:05:13.873Z,94742.75
2023-11-22T03:08:00.176Z,94737.69
2023-11-22T03:10:46.020Z,94735.31
2023-11-22T03:13:31.970Z,94717.53
2023-11-22T03:16:17.824Z,94723.41
2023-11-22T03:19:07.993Z,94724.38
2023-11-22T03:21:54.153Z,94736.91
2023-11-22T03:24:40.949Z,94730.84
2023-11-22T03:27:27.532Z,94727.69
2023-11-22T03:30:17.017Z,94728.34
2023-11-22T03:33:03.069Z,94742.31
2023-11-22T03:35:59.376Z,94742.94
2023-11-22T03:38:46.096Z,94738.19
2023-11-22T03:41:32.836Z,94754.56
2023-11-22T03:44:19.007Z,94753.28
2023-11-22T03:47:07.883Z,94756.00
2023-11-22T03:49:54.074Z,94761.25
2023-11-22T03:52:41.084Z,94759.34
2023-11-22T03:55:28.115Z,94756.94
2023-11-22T03:58:19.336Z,94755.72
2023-11-22T04:01:05.431Z,94750.31
2023-11-22T04:03:52.749Z,94758.41
2023-11-22T04:06:38.914Z,94757.94
2023-11-22T04:09:25.272Z,94763.81
2023-11-22T04:12:11.634Z,94757.16
2023-11-22T04:14:57.765Z,94772.41
2023-11-22T04:17:43.848Z,94775.09
2023-11-22T04:20:31.342Z,94769.69
2023-11-22T04:23:17.604Z,94755.38
2023-11-22T04:26:03.659Z,94753.47
2023-11-22T04:28:49.954Z,94760.44
2023-11-22T04:31:35.608Z,94762.03
2023-11-22T04:34:25.362Z,94769.34
2023-11-22T04:37:11.316Z,94768.22
2023-11-22T04:39:57.652Z,94769.03
2023-11-22T04:42:43.565Z,94777.78
2023-11-22T04:45:29.474Z,94785.22
2023-11-22T04:48:18.025Z,94785.22
2023-11-22T04:51:04.241Z,94789.03
2023-11-22T04:53:50.049Z,94786.34
2023-11-22T04:56:35.980Z,94788.41
2023-11-22T04:59:21.741Z,94792.84
2023-11-22T05:02:08.338Z,94804.63
2023-11-22T05:04:54.810Z,94814.78
2023-11-22T05:07:40.762Z,94824.00
2023-11-22T05:10:26.481Z,94805.44
2023-11-22T05:13:13.246Z,94841.94
2023-11-22T05:15:59.056Z,94840.03
2023-11-22T05:18:45.826Z,94835.41
2023-11-22T05:21:31.706Z,94830.34
2023-11-22T05:24:18.897Z,94844.31
2023-11-22T05:27:05.162Z,94831.91
2023-11-22T05:29:55.255Z,94829.56
2023-11-22T05:32:42.577Z,94837.97
2023-11-22T05:35:28.929Z,94835.59
2023-11-22T05:38:14.822Z,94844.81
2023-11-22T05:41:03.645Z,94838.63
2023-11-22T05:43:50.736Z,94839.25
2023-11-22T05:46:36.587Z,94852.44
2023-11-22T05:49:22.587Z,94857.06
2023-11-22T05:52:08.523Z,94848.34
2023-11-22T05:54:54.687Z,94860.56
2023-11-22T05:57:40.563Z,94869.94
2023-11-22T06:00:27.748Z,94853.72
2023-11-22T06:03:14.781Z,94865.00
2023-11-22T06:06:00.813Z,94864.69
2023-11-22T06:08:47.048Z,94876.28
2023-11-22T06:11:33.011Z,94882.13
2023-11-22T06:14:20.715Z,94885.31
2023-11-22T06:17:06.888Z,94890.72
2023-11-22T06:19:53.019Z,94884.53
2023-11-22T06:22:42.376Z,94894.72
2023-11-22T06:25:28.687Z,94903.00
2023-11-22T06:28:14.594Z,94897.22
2023-11-22T06:31:01.105Z,94888.00
2023-11-22T06:33:47.091Z,94890.41
2023-11-22T06:36:33.898Z,94881.97
2023-11-22T06:39:19.810Z,94885.94
2023-11-22T06:42:06.003Z,94877.38
2023-11-22T06:44:54.119Z,94884.50
2023-11-22T06:47:41.018Z,94883.06
2023-11-22T06:50:28.035Z,94889.72
2023-11-22T06:53:14.223Z,94888.13
2023-11-22T06:56:00.367Z,94898.78
2023-11-22T06:58:46.426Z,94901.97
2023-11-22T07:01:32.310Z,94890.69
2023-11-22T07:04:18.541Z,94905.91
2023-11-22T07:07:05.534Z,94910.19
2023-11-22T07:09:52.160Z,94920.53
2023-11-22T07:12:38.162Z,94921.19
2023-11-22T07:15:24.240Z,94916.13
2023-11-22T07:18:11.350Z,94924.06
2023-11-22T07:20:58.314Z,94924.06
2023-11-22T07:23:46.424Z,94940.94
2023-11-22T07:26:32.346Z,94940.94
2023-11-22T07:29:18.400Z,94950.00
2023-11-22T07:32:04.793Z,94955.56
2023-11-22T07:34:50.709Z,94943.19
2023-11-22T07:37:45.841Z,94933.16
2023-11-22T07:40:32.003Z,94945.41
2023-11-22T07:43:19.240Z,94954.47
2023-11-22T07:46:14.742Z,94959.41
2023-11-22T07:49:00.735Z,94969.41
2023-11-22T07:51:46.717Z,94960.97
2023-11-22T07:54:32.808Z,94959.88
2023-11-22T07:57:21.334Z,94973.38
2023-11-22T08:00:08.960Z,94977.19
2023-11-22T08:02:58.714Z,94978.00
2023-11-22T08:05:49.601Z,94968.63
2023-11-22T08:08:39.743Z,94976.09
2023-11-22T08:11:26.079Z,94969.09
2023-11-22T08:14:14.379Z,94974.31
2023-11-22T08:17:00.581Z,94969.69
2023-11-22T08:19:49.242Z,94969.38
2023-11-22T08:22:36.621Z,94973.69
2023-11-22T08:25:22.560Z,94980.69
2023-11-22T08:28:11.078Z,94988.13
2023-11-22T08:30:57.288Z,94992.41
2023-11-22T08:33:43.657Z,94996.22
2023-11-22T08:36:29.564Z,94988.78
2023-11-22T08:39:15.413Z,94989.25
2023-11-22T08:42:01.672Z,94997.03
2023-11-22T08:44:47.498Z,94998.63
2023-11-22T08:47:33.838Z,95001.63
2023-11-22T08:50:21.199Z,94993.06
2023-11-22T08:53:08.090Z,94986.72
2023-11-22T08:55:55.727Z,94996.91
2023-11-22T08:58:41.855Z,94988.94
2023-11-22T09:01:28.178Z,94995.31
2023-11-22T09:04:14.880Z,95003.41
2023-11-22T09:07:01.910Z,95005.94
2023-11-22T09:09:48.490Z,95011.19
2023-11-22T09:12:34.154Z,94996.09
2023-11-22T09:15:27.518Z,94991.97
2023-11-22T09:18:13.893Z,95004.53
2023-11-22T09:21:00.415Z,95007.72
2023-11-22T09:23:46.193Z,95006.75
2023-11-22T09:26:32.094Z,95016.13
2023-11-22T09:29:18.494Z,95020.25
2023-11-22T09:32:04.722Z,95018.19
2023-11-22T09:34:52.964Z,95022.81
2023-11-22T09:37:40.579Z,95019.47
2023-11-22T09:40:33.037Z,95017.91
2023-11-22T09:43:21.591Z,95019.19
2023-11-22T09:46:13.080Z,95016.00
2023-11-22T09:48:59.216Z,95007.41
2023-11-22T09:51:48.989Z,95010.91
2023-11-22T09:54:35.440Z,95009.00
2023-11-22T09:57:26.153Z,95015.50
2023-11-22T10:00:15.254Z,95009.31
2023-11-22T10:03:01.313Z,95013.13
2023-11-22T10:05:47.638Z,95018.53
2023-11-22T10:08:34.186Z,95016.94
2023-11-22T10:11:23.777Z,95024.09
2023-11-22T10:14:10.141Z,95026.94
2023-11-22T10:17:02.605Z,95043.31
2023-11-22T10:19:48.516Z,95057.94
2023-11-22T10:22:49.169Z,95062.38
2023-11-22T10:25:35.286Z,95062.38
2023-11-22T10:28:21.865Z,95056.03
2023-11-22T10:31:09.204Z,95048.38
2023-11-22T10:33:58.660Z,95050.28
2023-11-22T10:36:44.596Z,95051.09
2023-11-22T10:39:30.567Z,95055.38
2023-11-22T10:42:16.669Z,95059.19
2023-11-22T10:45:08.871Z,95062.38
2023-11-22T10:47:56.364Z,95072.06
2023-11-22T10:50:48.256Z,95077.97
2023-11-22T10:53:36.344Z,95075.41
2023-11-22T10:56:24.282Z,95091.47
2023-11-22T10:59:16.899Z,95090.50
2023-11-22T11:02:08.050Z,95099.56
2023-11-22T11:05:14.761Z,95083.50
2023-11-22T11:08:13.176Z,95089.38
2023-11-22T11:11:00.886Z,95094.16
2023-11-22T11:13:49.612Z,95098.47
2023-11-22T11:16:39.015Z,95103.88
2023-11-22T11:19:26.370Z,95100.06
2023-11-22T11:22:13.032Z,95105.16
2023-11-22T11:25:06.973Z,95108.16
2023-11-22T11:28:03.587Z,95096.56
2023-11-22T11:30:50.714Z,95106.25
2023-11-22T11:33:54.943Z,95117.50
2023-11-22T11:36:41.642Z,95120.56
2023-11-22T11:39:32.490Z,95118.16
2023-11-22T11:42:25.440Z,95117.38
2023-11-22T11:45:12.345Z,95122.78
2023-11-22T11:48:29.255Z,95113.22
2023-11-22T11:52:27.338Z,95124.69
2023-11-22T11:55:13.086Z,95127.22
2023-11-22T11:58:05.992Z,95133.56
2023-11-22T12:01:12.717Z,95128.50
2023-11-22T12:08:54.312Z,95130.03
2023-11-22T12:12:19.352Z,95148.94
2023-11-22T12:19:50.566Z,95152.00
2023-11-22T12:22:37.243Z,95164.34
2023-11-22T12:29:57.038Z,95148.81
2023-11-22T12:32:43.777Z,95160.53
2023-11-22T12:35:31.127Z,95163.13
2023-11-22T12:38:51.328Z,95159.94
2023-11-22T12:41:37.454Z,95175.03
2023-11-22T12:44:23.582Z,95167.91
2023-11-22T12:47:43.782Z,95172.66
2023-11-22T12:50:37.107Z,95179.03
2023-11-22T12:54:06.303Z,95190.47
2023-11-22T12:57:00.239Z,95193.66
2023-11-22T13:00:30.358Z,95214.94
2023-11-22T13:03:16.567Z,95214.28
2023-11-22T13:06:02.837Z,95235.09
2023-11-22T13:09:22.380Z,95232.38
2023-11-22T13:12:08.226Z,95244.16
2023-11-22T13:14:54.650Z,95256.06
2023-11-22T13:17:40.696Z,95253.38
2023-11-22T13:20:28.191Z,95242.22
2023-11-22T13:23:15.263Z,95261.34
2023-11-22T13:26:01.253Z,95253.25
2023-11-22T13:33:11.306Z,95228.94
2023-11-22T13:41:07.650Z,95247.69
2023-11-22T13:43:53.522Z,95242.59
2023-11-22T13:55:55.169Z,95274.56
2023-11-22T13:58:41.176Z,95258.47
2023-11-22T14:01:27.823Z,95284.09
2023-11-22T14:04:13.962Z,95287.91
2023-11-22T14:06:59.965Z,95268.16
2023-11-22T14:09:48.271Z,95277.56
2023-11-22T14:12:34.218Z,95297.22
2023-11-22T14:15:23.423Z,95308.38
2023-11-22T14:18:09.855Z,95314.72
2023-11-22T14:20:57.480Z,95305.19
2023-11-22T14:23:43.435Z,95309.97
2023-11-22T14:26:35.692Z,95304.81
2023-11-22T14:29:21.975Z,95313.41
2023-11-22T14:32:08.306Z,95316.59
2023-11-22T14:34:56.444Z,95319.44
2023-11-22T14:37:43.697Z,95332.63
2023-11-22T14:40:31.941Z,95334.06
2023-11-22T14:43:18.185Z,95340.41
2023-11-22T14:46:06.874Z,95343.44
2023-11-22T14:48:54.562Z,95349.63
2023-11-22T14:51:40.382Z,95367.44
2023-11-22T14:54:29.059Z,95372.03
2023-11-22T14:57:18.354Z,95379.34
2023-11-22T15:00:10.615Z,95378.25
2023-11-22T15:02:58.200Z,95382.03
2023-11-22T15:05:44.508Z,95383.94
2023-11-22T15:08:30.653Z,95389.84
2023-11-22T15:11:16.862Z,95383.47
2023-11-22T15:14:03.030Z,95393.50
2023-11-22T15:16:49.195Z,95393.66
2023-11-22T15:19:36.807Z,95400.47
2023-11-22T15:22:28.058Z,95418.91
2023-11-22T15:25:16.685Z,95422.69
2023-11-22T15:28:03.080Z,95423.19
2023-11-22T15:30:59.941Z,95435.09
2023-11-22T15:33:46.955Z,95447.50
2023-11-22T15:36:33.452Z,95449.72
2023-11-22T15:39:23.290Z,95451.41
2023-11-22T15:42:42.548Z,95463.47
2023-11-22T15:45:28.672Z,95465.22
2023-11-22T15:48:16.353Z,95465.53
2023-11-22T15:51:02.164Z,95460.13
2023-11-22T15:53:49.249Z,95467.75
2023-11-22T15:56:35.920Z,95469.97
2023-11-22T15:59:21.775Z,95468.34
2023-11-22T16:02:10.709Z,95478.16
2023-11-22T16:04:56.707Z,95489.78
2023-11-22T16:07:43.058Z,95494.88
2023-11-22T16:10:29.394Z,95489.28
2023-11-22T16:13:15.292Z,95507.38
2023-11-22T16:16:02.941Z,95509.47
2023-11-22T16:18:48.811Z,95504.78
2023-11-22T16:21:35.197Z,95522.47
2023-11-22T16:24:21.348Z,95525.81
2023-11-22T16:27:07.563Z,95549.47
2023-11-22T16:29:53.849Z,95550.56
2023-11-22T16:32:40.827Z,95552.19
2023-11-22T16:35:27.339Z,95555.00
2023-11-22T16:38:13.452Z,95572.19
2023-11-22T16:40:59.665Z,95578.88
2023-11-22T16:43:45.850Z,95576.19
2023-11-22T16:46:33.880Z,95583.97
2023-11-22T16:49:20.604Z,95593.69
2023-11-22T16:52:06.659Z,95589.88
2023-11-22T16:54:53.667Z,95593.19
2023-11-22T16:57:40.808Z,95610.41
2023-11-22T17:00:27.641Z,95591.59
2023-11-22T17:03:18.331Z,95605.00
2023-11-22T17:06:08.316Z,95605.59
2023-11-22T17:08:55.000Z,95615.19
2023-11-22T17:11:42.002Z,95605.09
2023-11-22T17:14:29.095Z,95620.09
2023-11-22T17:17:15.226Z,95626.59
2023-11-22T17:20:01.266Z,95631.88
2023-11-22T17:22:47.251Z,95629.19
2023-11-22T17:25:34.841Z,95638.38
2023-11-22T17:28:26.587Z,95617.59
2023-11-22T17:31:12.759Z,95641.09
2023-11-22T17:33:59.257Z,95643.78
2023-11-22T17:36:45.353Z,95643.00
2023-11-22T17:39:31.537Z,95656.50
2023-11-22T17:42:19.538Z,95663.81
2023-11-22T17:45:06.208Z,95640.31
2023-11-22T17:47:53.596Z,95669.22
2023-11-22T17:50:40.358Z,95666.00
2023-11-22T17:53:27.961Z,95670.31
2023-11-22T17:56:14.056Z,95682.22
2023-11-22T17:59:00.496Z,95682.22
2023-11-22T18:01:46.679Z,95685.81
2023-11-22T18:04:33.202Z,95700.03
2023-11-22T18:07:22.036Z,95702.72
2023-11-22T18:10:09.180Z,95700.03
2023-11-22T18:12:54.884Z,95707.03
2023-11-22T18:15:44.524Z,95710.81
2023-11-22T18:18:30.951Z,95717.84
2023-11-22T18:21:16.828Z,95716.53
2023-11-22T18:24:03.070Z,95721.63
2023-11-22T18:26:49.645Z,95709.81
2023-11-22T18:29:35.561Z,95725.44
2023-11-22T18:32:26.982Z,95728.13
2023-11-22T18:35:16.337Z,95722.72
2023-11-22T18:38:02.905Z,95730.84
2023-11-22T18:40:48.708Z,95743.25
2023-11-22T18:43:35.793Z,95736.75
2023-11-22T18:46:21.969Z,95730.41
2023-11-22T18:49:09.124Z,95751.34
2023-11-22T18:51:54.684Z,95751.03
2023-11-22T18:54:42.205Z,95755.66
2023-11-22T18:57:28.698Z,95736.91
2023-11-22T19:00:15.285Z,95746.81
2023-11-22T19:03:01.246Z,95759.44
2023-11-22T19:05:48.219Z,95754.63
2023-11-22T19:08:34.624Z,95762.44
2023-11-22T19:11:20.790Z,95771.84
2023-11-22T19:14:07.177Z,95768.03
2023-11-22T19:16:53.485Z,95763.41
2023-11-22T19:19:42.274Z,95764.22
2023-11-22T19:22:28.226Z,95766.44
2023-11-22T19:25:14.431Z,95778.25
2023-11-22T19:28:01.660Z,95782.03
2023-11-22T19:30:47.328Z,95786.06
2023-11-22T19:33:33.319Z,95789.63
2023-11-22T19:36:27.723Z,95803.66
2023-11-22T19:39:13.769Z,95799.03
2023-11-22T19:41:59.572Z,95798.88
2023-11-22T19:44:45.729Z,95797.16
2023-11-22T19:47:32.818Z,95798.25
2023-11-22T19:50:21.255Z,95802.03
2023-11-22T19:53:07.250Z,95805.84
2023-11-22T19:55:53.449Z,95815.88
2023-11-22T19:58:41.075Z,95817.78
2023-11-22T20:01:27.804Z,95817.25
2023-11-22T20:04:16.162Z,95825.88
2023-11-22T20:07:02.137Z,95830.47
2023-11-22T20:09:49.136Z,95830.16
2023-11-22T20:12:35.203Z,95836.88
2023-11-22T20:15:22.673Z,95837.66
2023-11-22T20:18:10.020Z,95833.66
2023-11-22T20:20:56.512Z,95836.06
2023-11-22T20:23:42.809Z,95832.38
2023-11-22T20:26:28.972Z,95835.56
2023-11-22T20:29:16.309Z,95835.47
2023-11-22T20:32:02.514Z,95840.88
2023-11-22T20:34:49.484Z,95828.06
2023-11-22T20:37:37.528Z,95828.06
2023-11-22T20:40:26.046Z,95842.25
2023-11-22T20:43:12.264Z,95844.69
2023-11-22T20:45:59.932Z,95850.88
2023-11-22T20:48:45.813Z,95853.56
2023-11-22T20:51:32.486Z,95848.97
2023-11-22T20:54:18.637Z,95840.47
2023-11-22T20:57:08.594Z,95855.47
2023-11-22T20:59:55.001Z,95867.88
2023-11-22T21:02:41.759Z,95859.84
2023-11-22T21:05:28.786Z,95859.28
2023-11-22T21:08:21.413Z,95867.38
2023-11-22T21:11:18.276Z,95876.28
2023-11-22T21:14:05.175Z,95884.31
2023-11-22T21:16:51.307Z,95884.50
2023-11-22T21:19:38.152Z,95886.13
2023-11-22T21:22:26.347Z,95888.53
2023-11-22T21:25:12.712Z,95877.41
2023-11-22T21:27:59.034Z,95872.31
2023-11-22T21:30:45.293Z,95877.94
2023-11-22T21:33:32.739Z,95873.34
2023-11-22T21:36:18.999Z,95876.31
2023-11-22T21:39:13.690Z,95862.31
2023-11-22T21:42:00.449Z,95870.94
2023-11-22T21:44:48.780Z,95877.94
2023-11-22T21:47:38.418Z,95881.16
2023-11-22T21:50:24.389Z,95877.13
2023-11-22T21:53:11.940Z,95883.34
2023-11-22T21:55:57.971Z,95883.34
2023-11-22T21:58:45.475Z,95886.56
2023-11-22T22:01:31.774Z,95880.34
2023-11-22T22:04:18.217Z,95877.94
2023-11-22T22:07:05.547Z,95882.75
2023-11-22T22:09:51.278Z,95877.13
2023-11-22T22:12:37.395Z,95874.72
2023-11-22T22:15:23.122Z,95875.75
2023-11-22T22:18:09.160Z,95875.75
2023-11-22T22:20:56.263Z,95877.94
2023-11-22T22:23:43.505Z,95877.34
2023-11-22T22:26:29.486Z,95870.72
2023-11-22T22:29:15.397Z,95879.53
2023-11-22T22:32:01.716Z,95870.13
2023-11-22T22:34:48.010Z,95883.84
2023-11-22T22:37:34.183Z,95879.53
2023-11-22T22:40:20.113Z,95879.84
2023-11-22T22:43:06.494Z,95879.03
2023-11-22T22:45:52.243Z,95880.13
2023-11-22T22:48:39.082Z,95886.91
2023-11-22T22:51:25.364Z,95902.31
2023-11-22T22:54:12.158Z,95912.63
2023-11-22T22:56:58.009Z,95902.13
2023-11-22T22:59:44.371Z,95901.91
2023-11-22T23:02:31.674Z,95915.31
2023-11-22T23:05:24.461Z,95900.22
2023-11-22T23:08:12.318Z,95916.94
2023-11-22T23:10:58.214Z,95907.31
2023-11-22T23:13:45.095Z,95914.75
2023-11-22T23:16:31.171Z,95923.94
2023-11-22T23:19:17.497Z,95915.31
2023-11-22T23:22:07.555Z,95920.94
2023-11-22T23:24:53.754Z,95921.75
2023-11-22T23:27:39.935Z,95920.34
2023-11-22T23:30:25.779Z,95926.56
2023-11-22T23:33:12.552Z,95931.97
2023-11-22T23:35:59.038Z,95930.59
2023-11-22T23:38:46.645Z,95932.47
2023-11-22T23:41:35.176Z,95929.78
2023-11-22T23:44:21.284Z,95924.84
2023-11-22T23:47:10.657Z,95921.34
2023-11-22T23:49:56.890Z,95932.97
2023-11-22T23:52:43.700Z,95931.88
2023-11-22T23:55:29.779Z,95930.25
2023-11-22T23:58:16.203Z,95931.88
